createdAt,value
2018-09-03T00:00:24.798Z,14.69
2018-09-03T00:03:01.194Z,14.79
2018-09-03T00:05:31.558Z,14.99
2018-09-03T00:08:01.585Z,14.88
2018-09-03T00:13:06.470Z,14.86
2018-09-03T00:18:14.310Z,14.92
2018-09-03T00:20:46.470Z,14.78
2018-09-03T00:23:15.722Z,14.74
2018-09-03T00:28:20.505Z,14.54
2018-09-03T00:30:49.946Z,14.70
2018-09-03T00:41:58.484Z,14.57
2018-09-03T00:47:24.254Z,14.65
2018-09-03T00:49:56.485Z,14.43
2018-09-03T00:52:25.551Z,14.26
2018-09-03T00:54:56.675Z,14.23
2018-09-03T01:00:01.639Z,14.50
2018-09-03T01:05:06.505Z,14.51
2018-09-03T01:07:36.624Z,14.49
2018-09-03T01:10:05.707Z,14.67
2018-09-03T01:12:34.785Z,14.73
2018-09-03T01:15:03.852Z,14.71
2018-09-03T01:17:33.945Z,14.64
2018-09-03T01:20:03.009Z,14.61
2018-09-03T01:22:32.079Z,14.59
2018-09-03T01:25:01.153Z,14.51
2018-09-03T01:27:30.250Z,14.43
2018-09-03T01:30:11.011Z,14.58
2018-09-03T01:35:15.943Z,14.69
2018-09-03T01:40:20.791Z,14.48
2018-09-03T01:45:25.648Z,14.45
2018-09-03T01:50:30.542Z,14.14
2018-09-03T01:52:59.634Z,14.14
2018-09-03T01:55:28.708Z,14.12
2018-09-03T02:00:33.562Z,14.07
2018-09-03T02:03:02.642Z,13.86
2018-09-03T02:05:31.731Z,13.55
2018-09-03T02:08:00.849Z,13.58
2018-09-03T02:14:08.765Z,13.76
2018-09-03T02:16:37.817Z,13.85
2018-09-03T02:19:07.848Z,13.74
2018-09-03T02:21:37.921Z,13.57
2018-09-03T02:24:06.993Z,13.59
2018-09-03T02:26:37.072Z,13.63
2018-09-03T02:29:06.165Z,13.78
2018-09-03T02:31:35.385Z,13.92
2018-09-03T02:39:15.908Z,14.17
2018-09-03T02:41:44.979Z,14.34
2018-09-03T02:44:14.052Z,14.26
2018-09-03T02:46:44.113Z,14.01
2018-09-03T02:49:13.192Z,13.84
2018-09-03T02:56:53.741Z,14.06
2018-09-03T02:59:23.837Z,14.06
2018-09-03T03:01:52.939Z,14.20
2018-09-03T03:04:22.016Z,14.17
2018-09-03T03:06:52.049Z,14.25
2018-09-03T03:09:21.117Z,14.20
2018-09-03T03:11:50.196Z,14.05
2018-09-03T03:14:20.587Z,13.84
2018-09-03T03:19:25.343Z,13.93
2018-09-03T03:24:30.222Z,13.83
2018-09-03T03:27:00.340Z,13.77
2018-09-03T03:29:29.521Z,13.81
2018-09-03T03:37:11.046Z,14.00
2018-09-03T03:42:15.905Z,14.00
2018-09-03T03:55:08.063Z,14.09
2018-09-03T03:57:39.022Z,13.84
2018-09-03T04:00:08.135Z,13.71
2018-09-03T04:02:37.221Z,13.57
2018-09-03T04:05:06.305Z,13.52
2018-09-03T04:07:35.367Z,13.57
2018-09-03T04:10:04.441Z,13.60
2018-09-03T04:12:33.519Z,13.76
2018-09-03T04:17:38.299Z,13.57
2018-09-03T04:22:43.153Z,13.35
2018-09-03T04:25:12.287Z,13.25
2018-09-03T04:27:41.334Z,13.24
2018-09-03T04:32:46.097Z,13.45
2018-09-03T04:37:50.942Z,13.38
2018-09-03T04:40:20.071Z,13.14
2018-09-03T04:42:49.141Z,13.18
2018-09-03T04:45:18.210Z,13.26
2018-09-03T04:47:47.298Z,13.46
2018-09-03T04:50:16.369Z,13.55
2018-09-03T04:52:46.470Z,13.49
2018-09-03T04:55:15.553Z,13.53
2018-09-03T04:57:44.615Z,13.60
2018-09-03T05:00:13.710Z,13.58
2018-09-03T05:02:42.841Z,13.58
2018-09-03T05:05:12.341Z,13.60
2018-09-03T05:10:19.076Z,13.75
2018-09-03T05:15:23.921Z,13.80
2018-09-03T05:17:52.996Z,13.67
2018-09-03T05:20:22.073Z,13.69
2018-09-03T05:22:51.142Z,13.51
2018-09-03T05:25:20.230Z,13.45
2018-09-03T05:27:49.320Z,13.40
2018-09-03T05:30:18.400Z,13.35
2018-09-03T05:32:47.622Z,13.57
2018-09-03T05:40:29.168Z,13.85
2018-09-03T05:42:58.359Z,13.83
2018-09-03T05:45:28.258Z,13.77
2018-09-03T05:47:57.406Z,13.54
2018-09-03T05:50:26.662Z,13.34
2018-09-03T05:52:55.651Z,13.43
2018-09-03T05:55:24.742Z,13.75
2018-09-03T05:57:53.812Z,13.67
2018-09-03T06:00:22.865Z,13.95
2018-09-03T06:03:08.533Z,13.50
2018-09-03T06:05:39.429Z,13.34
2018-09-03T06:08:21.898Z,13.71
2018-09-03T06:10:51.600Z,13.79
2018-09-03T06:15:56.499Z,14.07
2018-09-03T06:18:25.890Z,14.07
2018-09-03T06:20:54.942Z,13.97
2018-09-03T06:23:24.036Z,14.05
2018-09-03T06:28:28.802Z,13.99
2018-09-03T06:30:58.330Z,13.99
2018-09-03T06:33:28.706Z,14.01
2018-09-03T06:38:33.891Z,14.34
2018-09-03T06:41:13.316Z,14.66
2018-09-03T06:43:42.787Z,14.14
2018-09-03T06:46:12.007Z,14.45
2018-09-03T06:48:41.301Z,14.68
2018-09-03T06:51:10.373Z,14.31
2018-09-03T06:53:39.649Z,14.36
2018-09-03T06:56:08.730Z,14.35
2018-09-03T06:58:37.805Z,14.36
2018-09-03T07:01:07.014Z,14.65
2018-09-03T07:03:36.092Z,14.60
2018-09-03T07:06:05.155Z,14.59
2018-09-03T07:08:34.234Z,15.02
2018-09-03T07:11:03.296Z,15.45
2018-09-03T07:13:32.368Z,14.83
2018-09-03T07:16:01.441Z,14.81
2018-09-03T07:21:06.289Z,15.45
2018-09-03T07:23:35.349Z,15.71
2018-09-03T07:26:05.456Z,15.17
2018-09-03T07:28:34.703Z,15.28
2018-09-03T07:31:04.753Z,14.93
2018-09-03T07:33:33.825Z,15.32
2018-09-03T07:36:02.926Z,15.25
2018-09-03T07:38:32.001Z,15.03
2018-09-03T07:41:01.035Z,15.78
2018-09-03T07:46:06.815Z,16.52
2018-09-03T07:51:11.639Z,17.52
2018-09-03T07:53:40.646Z,17.59
2018-09-03T07:56:10.651Z,16.65
2018-09-03T07:58:39.709Z,16.69
2018-09-03T08:01:08.882Z,16.99
2018-09-03T08:03:39.889Z,16.24
2018-09-03T08:06:08.958Z,16.01
2018-09-03T08:08:38.018Z,16.51
2018-09-03T08:13:42.901Z,17.45
2018-09-03T08:16:11.945Z,17.76
2018-09-03T08:18:41.023Z,17.81
2018-09-03T08:21:10.074Z,17.83
2018-09-03T08:28:51.285Z,17.41
2018-09-03T08:31:21.301Z,17.40
2018-09-03T08:33:50.366Z,17.05
2018-09-03T08:36:19.433Z,17.17
2018-09-03T08:38:50.510Z,16.70
2018-09-03T08:41:19.606Z,17.37
2018-09-03T08:46:24.389Z,18.12
2018-09-03T08:51:29.262Z,17.78
2018-09-03T08:53:58.337Z,17.38
2018-09-03T08:56:27.403Z,17.09
2018-09-03T08:58:56.454Z,17.46
2018-09-03T09:01:25.522Z,17.40
2018-09-03T09:03:57.903Z,17.44
2018-09-03T09:06:28.954Z,17.88
2018-09-03T09:08:58.023Z,17.94
2018-09-03T09:11:27.295Z,18.00
2018-09-03T09:13:56.350Z,17.60
2018-09-03T09:16:27.393Z,18.19
2018-09-03T09:18:57.510Z,18.70
2018-09-03T09:21:26.556Z,19.23
2018-09-03T09:23:55.661Z,20.73
2018-09-03T09:26:24.699Z,21.11
2018-09-03T09:28:55.309Z,20.07
2018-09-03T09:31:24.433Z,19.75
2018-09-03T09:33:53.512Z,20.63
2018-09-03T09:36:22.558Z,20.92
2018-09-03T09:38:51.725Z,22.14
2018-09-03T09:41:20.816Z,22.07
2018-09-03T09:43:49.833Z,22.96
2018-09-03T09:46:18.897Z,22.86
2018-09-03T09:48:49.901Z,23.20
2018-09-03T09:51:21.033Z,23.93
2018-09-03T09:53:50.209Z,21.94
2018-09-03T09:56:19.257Z,23.49
2018-09-03T09:58:48.311Z,24.70
2018-09-03T10:01:17.473Z,25.02
2018-09-03T10:03:46.533Z,26.80
2018-09-03T10:06:19.161Z,26.99
2018-09-03T10:11:23.991Z,27.96
2018-09-03T10:13:53.059Z,27.34
2018-09-03T10:16:23.066Z,27.98
2018-09-03T10:21:28.954Z,28.26
2018-09-03T10:26:33.718Z,27.85
2018-09-03T10:29:02.775Z,27.94
2018-09-03T10:34:07.664Z,26.99
2018-09-03T10:36:37.948Z,25.38
2018-09-03T10:39:06.986Z,25.73
2018-09-03T10:41:36.020Z,27.44
2018-09-03T10:46:40.853Z,29.69
2018-09-03T10:49:09.952Z,28.27
2018-09-03T10:51:39.145Z,28.74
2018-09-03T10:54:08.210Z,27.94
2018-09-03T10:59:13.118Z,26.74
2018-09-03T11:01:42.161Z,26.91
2018-09-03T11:04:12.194Z,27.77
2018-09-03T11:06:41.288Z,27.79
2018-09-03T11:11:47.113Z,25.36
2018-09-03T11:14:17.278Z,25.74
2018-09-03T11:16:46.285Z,25.99
2018-09-03T11:21:51.173Z,24.99
2018-09-03T11:24:20.225Z,23.63
2018-09-03T11:26:49.277Z,23.55
2018-09-03T11:29:19.250Z,23.62
2018-09-03T11:31:49.290Z,24.23
2018-09-03T11:34:18.337Z,24.56
2018-09-03T11:36:47.398Z,24.35
2018-09-03T11:39:16.442Z,24.21
2018-09-03T11:44:22.257Z,23.34
2018-09-03T11:49:27.135Z,22.70
2018-09-03T11:51:56.210Z,22.57
2018-09-03T11:57:01.080Z,21.99
2018-09-03T11:59:30.189Z,22.12
2018-09-03T12:01:59.351Z,21.27
2018-09-03T12:07:04.282Z,20.45
2018-09-03T12:09:33.334Z,20.63
2018-09-03T12:12:02.407Z,20.80
2018-09-03T12:14:31.453Z,19.86
2018-09-03T12:17:00.497Z,19.74
2018-09-03T12:19:30.622Z,20.51
2018-09-03T12:24:35.394Z,20.41
2018-09-03T12:29:40.312Z,19.37
2018-09-03T12:34:45.149Z,19.20
2018-09-03T12:37:14.220Z,19.19
2018-09-03T12:39:45.200Z,19.71
2018-09-03T12:42:14.229Z,19.47
2018-09-03T12:47:19.013Z,19.52
2018-09-03T12:49:48.994Z,19.59
2018-09-03T12:52:18.144Z,19.88
2018-09-03T12:54:47.233Z,20.07
2018-09-03T12:57:16.272Z,20.11
2018-09-03T13:02:21.052Z,20.38
2018-09-03T13:07:25.941Z,20.03
2018-09-03T13:09:55.076Z,20.24
2018-09-03T13:12:24.135Z,20.23
2018-09-03T13:14:53.353Z,19.97
2018-09-03T13:17:22.392Z,19.92
2018-09-03T13:22:28.093Z,19.64
2018-09-03T13:24:57.164Z,19.73
2018-09-03T13:27:26.209Z,20.02
2018-09-03T13:29:55.265Z,20.09
2018-09-03T13:32:24.320Z,21.08
2018-09-03T13:34:53.374Z,21.08
2018-09-03T13:37:22.440Z,21.67
2018-09-03T13:39:51.513Z,22.18
2018-09-03T13:42:20.623Z,22.50
2018-09-03T13:44:49.621Z,23.22
2018-09-03T13:49:54.454Z,23.25
2018-09-03T13:52:23.509Z,22.29
2018-09-03T14:00:04.665Z,22.08
2018-09-03T14:02:33.718Z,22.57
2018-09-03T14:07:39.186Z,23.30
2018-09-03T14:12:44.119Z,27.85
2018-09-03T14:15:13.236Z,31.43
2018-09-03T14:17:42.293Z,32.26
2018-09-03T14:20:11.353Z,30.74
2018-09-03T14:22:40.421Z,27.72
2018-09-03T14:25:09.527Z,29.62
2018-09-03T14:27:38.508Z,28.32
2018-09-03T14:32:43.421Z,24.41
2018-09-03T14:35:12.477Z,23.74
2018-09-03T14:37:41.520Z,25.34
2018-09-03T14:40:10.585Z,25.36
2018-09-03T14:42:39.789Z,24.66
2018-09-03T14:45:10.200Z,24.18
2018-09-03T14:47:44.145Z,23.86
2018-09-03T14:50:13.207Z,24.44
2018-09-03T14:52:42.249Z,24.34
2018-09-03T14:55:11.349Z,24.03
2018-09-03T14:57:40.400Z,21.65
2018-09-03T15:00:09.453Z,21.22
2018-09-03T15:02:38.549Z,22.61
2018-09-03T15:05:07.609Z,24.04
2018-09-03T15:07:36.703Z,22.35
2018-09-03T15:12:41.482Z,21.63
2018-09-03T15:15:10.533Z,21.60
2018-09-03T15:17:40.587Z,21.25
2018-09-03T15:22:47.486Z,20.91
2018-09-03T15:27:52.348Z,21.34
2018-09-03T15:30:22.341Z,21.47
2018-09-03T15:32:51.392Z,21.14
2018-09-03T15:35:20.596Z,21.01
2018-09-03T15:37:49.646Z,20.67
2018-09-03T15:40:18.693Z,20.86
2018-09-03T15:42:47.806Z,20.91
2018-09-03T15:45:16.794Z,20.57
2018-09-03T15:47:45.873Z,20.50
2018-09-03T15:50:14.893Z,20.40
2018-09-03T15:52:43.933Z,20.45
2018-09-03T15:55:13.002Z,20.54
2018-09-03T15:57:42.061Z,20.66
2018-09-03T16:00:11.142Z,20.81
2018-09-03T16:02:40.184Z,20.66
2018-09-03T16:05:10.200Z,20.47
2018-09-03T16:07:41.210Z,20.58
2018-09-03T16:10:10.362Z,20.67
2018-09-03T16:12:40.486Z,20.73
2018-09-03T16:15:09.542Z,20.64
2018-09-03T16:20:14.607Z,21.00
2018-09-03T16:22:43.657Z,21.04
2018-09-03T16:27:48.585Z,21.18
2018-09-03T16:30:18.077Z,21.19
2018-09-03T16:35:22.906Z,20.78
2018-09-03T16:40:27.756Z,21.04
2018-09-03T16:42:57.753Z,20.81
2018-09-03T16:45:26.794Z,20.74
2018-09-03T16:47:55.848Z,20.60
2018-09-03T16:50:24.901Z,20.50
2018-09-03T16:52:53.960Z,20.34
2018-09-03T16:55:28.180Z,20.15
2018-09-03T16:57:57.228Z,20.17
2018-09-03T17:00:28.168Z,20.11
2018-09-03T17:02:57.238Z,20.03
2018-09-03T17:05:27.240Z,19.84
2018-09-03T17:07:56.375Z,19.88
2018-09-03T17:10:25.606Z,19.72
2018-09-03T17:12:56.610Z,19.76
2018-09-03T17:15:27.627Z,19.70
2018-09-03T17:17:56.706Z,19.49
2018-09-03T17:23:01.508Z,19.40
2018-09-03T17:25:30.553Z,19.43
2018-09-03T17:28:00.621Z,19.26
2018-09-03T17:30:29.692Z,19.09
2018-09-03T17:32:58.733Z,18.96
2018-09-03T17:35:27.776Z,18.96
2018-09-03T17:37:59.869Z,18.87
2018-09-03T17:40:28.916Z,18.66
2018-09-03T17:42:58.982Z,18.52
2018-09-03T17:45:28.034Z,18.40
2018-09-03T17:47:57.093Z,18.32
2018-09-03T17:50:26.150Z,18.08
2018-09-03T17:52:55.216Z,17.92
2018-09-03T17:55:24.299Z,17.99
2018-09-03T18:00:29.162Z,18.06
2018-09-03T18:02:58.237Z,18.08
2018-09-03T18:05:29.277Z,17.97
2018-09-03T18:07:58.318Z,17.84
2018-09-03T18:10:28.319Z,17.78
2018-09-03T18:12:57.365Z,17.80
2018-09-03T18:15:26.412Z,17.83
2018-09-03T18:17:55.478Z,17.76
2018-09-03T18:20:24.661Z,17.68
2018-09-03T18:22:53.737Z,17.51
2018-09-03T18:27:58.570Z,17.66
2018-09-03T18:30:27.727Z,17.29
2018-09-03T18:33:00.785Z,17.18
2018-09-03T18:35:30.137Z,17.23
2018-09-03T18:37:59.225Z,17.25
2018-09-03T18:40:28.254Z,17.24
2018-09-03T18:42:57.318Z,17.35
2018-09-03T18:48:02.119Z,17.41
2018-09-03T18:50:31.223Z,17.58
2018-09-03T18:53:00.401Z,17.47
2018-09-03T18:58:05.290Z,17.36
2018-09-03T19:00:34.354Z,17.38
2018-09-03T19:05:39.281Z,17.50
2018-09-03T19:08:08.361Z,17.52
2018-09-03T19:10:37.405Z,17.48
2018-09-03T19:15:43.270Z,17.56
2018-09-03T19:18:12.329Z,17.48
2018-09-03T19:20:41.387Z,17.51
2018-09-03T19:25:46.227Z,17.51
2018-09-03T19:28:17.317Z,17.40
2018-09-03T19:30:47.275Z,17.22
2018-09-03T19:33:16.349Z,17.22
2018-09-03T19:35:45.417Z,17.25
2018-09-03T19:38:14.490Z,17.35
2018-09-03T19:40:43.542Z,17.39
2018-09-03T19:43:12.595Z,17.43
2018-09-03T19:48:17.455Z,17.19
2018-09-03T19:50:46.561Z,17.20
2018-09-03T19:53:15.632Z,17.08
2018-09-03T19:55:44.780Z,16.95
2018-09-03T19:58:13.812Z,16.89
2018-09-03T20:00:46.407Z,16.82
2018-09-03T20:03:15.482Z,16.83
2018-09-03T20:08:20.324Z,16.94
2018-09-03T20:13:34.849Z,17.06
2018-09-03T20:16:04.171Z,16.93
2018-09-03T20:18:33.324Z,16.98
2018-09-03T20:23:38.401Z,16.92
2018-09-03T20:26:07.502Z,17.00
2018-09-03T20:28:37.693Z,16.97
2018-09-03T20:31:06.708Z,17.03
2018-09-03T20:33:36.790Z,17.07
2018-09-03T20:36:05.862Z,17.06
2018-09-03T20:38:34.934Z,17.04
2018-09-03T20:41:04.023Z,16.84
2018-09-03T20:46:10.466Z,16.66
2018-09-03T20:48:42.769Z,16.72
2018-09-03T20:51:12.285Z,16.74
2018-09-03T20:53:43.996Z,16.57
2018-09-03T20:56:14.672Z,16.51
2018-09-03T21:01:20.445Z,16.46
2018-09-03T21:06:28.863Z,16.53
2018-09-03T21:08:59.945Z,16.56
2018-09-03T21:11:30.712Z,16.63
2018-09-03T21:14:01.564Z,16.49
2018-09-03T21:16:32.187Z,16.46
2018-09-03T21:19:02.046Z,16.44
2018-09-03T21:26:47.229Z,16.54
2018-09-03T21:29:20.661Z,16.62
2018-09-03T21:31:54.155Z,16.44
2018-09-03T21:34:28.018Z,16.38
2018-09-03T21:39:35.294Z,16.59
2018-09-03T21:44:40.074Z,16.61
2018-09-03T21:47:09.202Z,16.69
2018-09-03T21:49:38.283Z,16.57
2018-09-03T21:52:07.394Z,16.56
2018-09-03T21:54:36.512Z,16.56
2018-09-03T21:57:05.600Z,16.51
2018-09-03T21:59:34.682Z,16.40
2018-09-03T22:02:03.805Z,16.33
2018-09-03T22:04:40.316Z,16.30
2018-09-03T22:07:10.335Z,16.26
2018-09-03T22:09:39.397Z,16.20
2018-09-03T22:12:08.461Z,16.08
2018-09-03T22:14:37.534Z,16.06
2018-09-03T22:17:06.603Z,16.05
2018-09-03T22:19:35.671Z,16.05
2018-09-03T22:22:04.726Z,16.05
2018-09-03T22:24:33.792Z,16.03
2018-09-03T22:27:03.036Z,16.01
2018-09-03T22:29:32.094Z,16.03
2018-09-03T22:32:01.518Z,16.07
2018-09-03T22:34:31.567Z,16.13
2018-09-03T22:37:00.674Z,16.09
2018-09-03T22:39:29.752Z,16.13
2018-09-03T22:41:59.816Z,16.09
2018-09-03T22:44:28.890Z,16.09
2018-09-03T22:46:57.952Z,16.06
2018-09-03T22:49:27.038Z,16.09
2018-09-03T22:51:57.134Z,16.11
2018-09-03T22:54:26.250Z,16.07
2018-09-03T22:57:00.808Z,16.05
2018-09-03T22:59:30.340Z,16.02
2018-09-03T23:01:59.406Z,15.96
2018-09-03T23:04:30.487Z,15.96
2018-09-03T23:07:00.501Z,15.98
2018-09-03T23:09:29.596Z,15.99
2018-09-03T23:11:58.664Z,16.06
2018-09-03T23:14:27.726Z,16.09
2018-09-03T23:16:56.798Z,16.03
2018-09-03T23:19:26.809Z,15.94
2018-09-03T23:21:57.791Z,15.93
2018-09-03T23:24:26.861Z,15.94
2018-09-03T23:26:55.999Z,15.95
2018-09-03T23:29:25.073Z,16.01
2018-09-03T23:31:54.153Z,16.00
2018-09-03T23:34:24.180Z,16.05
2018-09-03T23:36:53.229Z,16.06
2018-09-03T23:39:22.342Z,16.04
2018-09-03T23:41:52.418Z,16.24
2018-09-03T23:44:21.485Z,16.16
2018-09-03T23:49:26.284Z,16.08
2018-09-03T23:51:55.375Z,16.18
2018-09-03T23:54:24.441Z,16.21
2018-09-03T23:56:54.474Z,16.12
2018-09-03T23:59:23.667Z,16.18
